createdAt,value
2022-11-17T00:01:39.766Z,20.10
2022-11-17T00:04:05.332Z,20.09
2022-11-17T00:06:30.885Z,20.10
2022-11-17T00:08:56.425Z,20.08
2022-11-17T00:11:21.996Z,20.09
2022-11-17T00:14:07.440Z,20.08
2022-11-17T00:16:32.995Z,20.08
2022-11-17T00:19:18.429Z,20.09
2022-11-17T00:21:43.986Z,20.08
2022-11-17T00:24:09.529Z,20.08
2022-11-17T00:26:55.238Z,20.09
2022-11-17T00:29:20.780Z,20.09
2022-11-17T00:32:06.235Z,20.08
2022-11-17T00:34:31.778Z,20.08
2022-11-17T00:36:57.329Z,20.07
2022-11-17T00:39:23.123Z,20.08
2022-11-17T00:41:48.691Z,20.07
2022-11-17T00:44:14.248Z,20.08
2022-11-17T00:46:39.946Z,20.08
2022-11-17T00:49:06.022Z,20.07
2022-11-17T00:51:31.572Z,20.07
2022-11-17T00:53:57.106Z,20.09
2022-11-17T00:56:22.999Z,20.07
2022-11-17T00:58:48.611Z,20.07
2022-11-17T01:01:14.208Z,20.07
2022-11-17T01:03:39.851Z,20.07
2022-11-17T01:06:07.318Z,20.07
2022-11-17T01:08:33.708Z,20.07
2022-11-17T01:11:14.506Z,20.07
2022-11-17T01:13:40.223Z,20.07
2022-11-17T01:16:07.095Z,20.06
2022-11-17T01:18:32.871Z,20.07
2022-11-17T01:21:07.156Z,20.06
2022-11-17T01:23:32.933Z,20.05
2022-11-17T01:26:00.433Z,20.07
2022-11-17T01:28:25.996Z,20.06
2022-11-17T01:30:57.634Z,20.05
2022-11-17T01:33:23.179Z,20.04
2022-11-17T01:35:48.735Z,20.05
2022-11-17T01:38:14.281Z,20.05
2022-11-17T01:40:39.831Z,20.05
2022-11-17T01:43:08.111Z,20.05
2022-11-17T01:45:33.658Z,20.05
2022-11-17T01:47:59.657Z,20.05
2022-11-17T01:50:34.000Z,20.05
2022-11-17T01:53:00.163Z,20.05
2022-11-17T01:55:27.978Z,20.04
2022-11-17T01:57:54.714Z,20.04
2022-11-17T02:00:20.254Z,20.04
2022-11-17T02:02:45.802Z,20.04
2022-11-17T02:05:15.571Z,20.04
2022-11-17T02:07:41.161Z,20.03
2022-11-17T02:10:07.066Z,20.04
2022-11-17T02:12:32.915Z,20.04
2022-11-17T02:14:58.499Z,20.04
2022-11-17T02:17:26.302Z,20.04
2022-11-17T02:19:55.311Z,20.03
2022-11-17T02:22:25.858Z,20.03
2022-11-17T02:27:36.481Z,20.02
2022-11-17T02:30:03.820Z,20.03
2022-11-17T02:32:30.968Z,20.02
2022-11-17T02:37:56.941Z,20.02
2022-11-17T02:40:24.374Z,20.02
2022-11-17T02:43:13.502Z,20.02
2022-11-17T02:45:40.513Z,20.03
2022-11-17T02:48:08.135Z,20.02
2022-11-17T02:50:33.673Z,20.02
2022-11-17T02:52:59.221Z,20.02
2022-11-17T02:55:24.761Z,20.02
2022-11-17T02:57:50.316Z,20.01
2022-11-17T03:00:16.338Z,20.02
2022-11-17T03:02:45.842Z,20.02
2022-11-17T03:08:00.188Z,20.02
2022-11-17T03:10:27.752Z,20.01
2022-11-17T03:12:55.158Z,20.01
2022-11-17T03:15:40.576Z,20.01
2022-11-17T03:18:10.460Z,20.01
2022-11-17T03:23:18.414Z,20.00
2022-11-17T03:25:44.958Z,20.01
2022-11-17T03:28:10.508Z,20.01
2022-11-17T03:30:37.758Z,20.01
2022-11-17T03:33:05.245Z,20.01
2022-11-17T03:35:31.196Z,20.01
2022-11-17T03:37:58.436Z,19.99
2022-11-17T03:40:25.109Z,20.01
2022-11-17T03:42:53.035Z,20.00
2022-11-17T03:45:20.837Z,20.00
2022-11-17T03:47:46.383Z,20.00
2022-11-17T03:50:14.382Z,19.99
2022-11-17T03:52:39.943Z,20.00
2022-11-17T03:55:05.635Z,20.00
2022-11-17T03:57:33.702Z,19.99
2022-11-17T04:00:14.841Z,20.00
2022-11-17T04:02:41.787Z,19.98
2022-11-17T04:05:07.838Z,19.99
2022-11-17T04:07:41.384Z,20.00
2022-11-17T04:10:08.792Z,19.99
2022-11-17T04:12:54.244Z,19.99
2022-11-17T04:15:39.758Z,19.99
2022-11-17T04:18:05.456Z,19.99
2022-11-17T04:20:35.160Z,19.99
2022-11-17T04:23:10.567Z,19.99
2022-11-17T04:25:56.748Z,19.98
2022-11-17T04:28:37.966Z,19.99
2022-11-17T04:31:07.763Z,19.99
2022-11-17T04:33:33.682Z,19.99
2022-11-17T04:35:59.568Z,19.98
2022-11-17T04:38:25.134Z,19.99
2022-11-17T04:41:10.668Z,19.99
2022-11-17T04:43:37.020Z,19.98
2022-11-17T04:46:02.804Z,19.98
2022-11-17T04:48:28.352Z,19.98
2022-11-17T04:50:54.325Z,19.97
2022-11-17T04:53:20.010Z,19.98
2022-11-17T04:55:45.557Z,19.97
2022-11-17T04:58:11.188Z,19.98
2022-11-17T05:00:36.748Z,19.98
2022-11-17T05:03:02.289Z,19.96
2022-11-17T05:05:27.837Z,19.97
2022-11-17T05:07:53.380Z,19.98
2022-11-17T05:10:38.876Z,19.97
2022-11-17T05:13:24.351Z,19.97
2022-11-17T05:16:13.273Z,19.96
2022-11-17T05:18:39.104Z,19.97
2022-11-17T05:21:05.327Z,19.97
2022-11-17T05:23:50.848Z,19.97
2022-11-17T05:26:16.544Z,19.98
2022-11-17T05:28:42.085Z,19.97
2022-11-17T05:31:07.636Z,19.98
2022-11-17T05:33:37.587Z,19.97
2022-11-17T05:36:03.925Z,19.97
2022-11-17T05:38:29.467Z,19.96
2022-11-17T05:40:55.025Z,19.97
2022-11-17T05:43:20.577Z,19.96
2022-11-17T05:45:46.166Z,19.96
2022-11-17T05:48:11.743Z,19.96
2022-11-17T05:50:37.288Z,19.96
2022-11-17T05:53:03.049Z,19.97
2022-11-17T05:55:28.587Z,19.96
2022-11-17T05:57:54.142Z,19.96
2022-11-17T06:00:19.685Z,19.95
2022-11-17T06:02:46.641Z,19.96
2022-11-17T06:05:17.055Z,19.95
2022-11-17T06:07:45.480Z,19.97
2022-11-17T06:10:11.020Z,19.96
2022-11-17T06:12:36.578Z,19.96
2022-11-17T06:15:02.713Z,19.97
2022-11-17T06:17:30.378Z,19.96
2022-11-17T06:19:58.530Z,19.96
2022-11-17T06:22:24.823Z,19.96
2022-11-17T06:24:50.366Z,19.96
2022-11-17T06:27:15.926Z,19.97
2022-11-17T06:29:44.641Z,19.95
2022-11-17T06:32:10.659Z,19.95
2022-11-17T06:34:36.753Z,19.95
2022-11-17T06:37:02.289Z,19.95
2022-11-17T06:39:27.834Z,19.95
2022-11-17T06:41:53.382Z,19.96
2022-11-17T06:44:18.935Z,19.95
2022-11-17T06:46:48.817Z,19.95
2022-11-17T06:49:14.797Z,19.96
2022-11-17T06:51:44.934Z,19.94
2022-11-17T06:54:11.556Z,19.95
2022-11-17T06:56:37.106Z,19.96
2022-11-17T06:59:02.702Z,19.95
2022-11-17T07:01:28.247Z,19.94
2022-11-17T07:03:53.798Z,19.95
2022-11-17T07:06:19.368Z,19.94
2022-11-17T07:08:44.959Z,19.94
2022-11-17T07:11:11.466Z,19.94
2022-11-17T07:13:37.114Z,19.94
2022-11-17T07:16:03.929Z,19.94
2022-11-17T07:18:29.472Z,19.94
2022-11-17T07:20:55.019Z,19.95
2022-11-17T07:23:20.925Z,19.93
2022-11-17T07:25:46.475Z,19.93
2022-11-17T07:28:13.245Z,19.93
2022-11-17T07:30:38.791Z,19.93
2022-11-17T07:33:05.303Z,19.94
2022-11-17T07:35:30.870Z,19.94
2022-11-17T07:37:58.502Z,19.94
2022-11-17T07:40:24.043Z,19.94
2022-11-17T07:42:49.602Z,19.93
2022-11-17T07:45:15.254Z,19.93
2022-11-17T07:47:40.807Z,19.93
2022-11-17T07:50:06.402Z,19.93
2022-11-17T07:52:32.824Z,19.93
2022-11-17T07:55:00.559Z,19.93
2022-11-17T07:57:27.862Z,19.94
2022-11-17T07:59:53.462Z,19.93
2022-11-17T08:02:19.017Z,19.93
2022-11-17T08:04:44.569Z,19.93
2022-11-17T08:07:10.188Z,19.93
2022-11-17T08:09:35.745Z,19.93
2022-11-17T08:12:01.307Z,19.93
2022-11-17T08:14:26.857Z,19.92
2022-11-17T08:16:52.410Z,19.92
2022-11-17T08:19:17.969Z,19.93
2022-11-17T08:21:43.833Z,19.92
2022-11-17T08:24:10.843Z,19.92
2022-11-17T08:26:36.405Z,19.92
2022-11-17T08:29:01.951Z,19.92
2022-11-17T08:31:27.522Z,19.93
2022-11-17T08:33:53.064Z,19.92
2022-11-17T08:36:18.621Z,19.92
2022-11-17T08:38:44.176Z,19.92
2022-11-17T08:41:09.730Z,19.92
2022-11-17T08:43:35.302Z,19.92
2022-11-17T08:46:01.793Z,19.93
2022-11-17T08:48:30.729Z,19.92
2022-11-17T08:50:56.414Z,19.92
2022-11-17T08:53:22.626Z,19.51
2022-11-17T08:55:48.610Z,19.66
2022-11-17T08:58:14.264Z,19.82
2022-11-17T09:00:39.902Z,19.88
2022-11-17T09:03:06.168Z,19.90
2022-11-17T09:05:32.032Z,19.92
2022-11-17T09:08:10.702Z,19.93
2022-11-17T09:10:43.873Z,19.93
2022-11-17T09:13:09.433Z,19.94
2022-11-17T09:15:35.000Z,19.94
2022-11-17T09:18:02.291Z,19.94
2022-11-17T09:20:28.233Z,19.95
2022-11-17T09:22:53.791Z,19.94
2022-11-17T09:25:19.341Z,19.94
2022-11-17T09:27:44.920Z,19.94
2022-11-17T09:30:10.492Z,19.96
2022-11-17T09:32:36.056Z,19.96
2022-11-17T09:35:05.359Z,19.98
2022-11-17T09:37:30.950Z,19.98
2022-11-17T09:39:56.497Z,19.99
2022-11-17T09:42:22.217Z,19.97
2022-11-17T09:45:03.766Z,19.99
2022-11-17T09:47:47.878Z,19.99
2022-11-17T09:50:29.411Z,19.99
2022-11-17T09:53:15.398Z,20.00
2022-11-17T09:55:42.092Z,20.00
2022-11-17T09:58:11.085Z,20.00
2022-11-17T10:00:36.638Z,20.00
2022-11-17T10:03:02.213Z,20.00
2022-11-17T10:05:29.006Z,20.04
2022-11-17T10:07:55.675Z,20.05
2022-11-17T10:10:33.433Z,20.03
2022-11-17T10:12:58.979Z,20.02
2022-11-17T10:15:25.426Z,20.02
2022-11-17T10:17:51.173Z,20.02
2022-11-17T10:20:17.970Z,20.01
2022-11-17T10:22:43.551Z,20.02
2022-11-17T10:25:29.013Z,20.02
2022-11-17T10:27:54.567Z,20.02
2022-11-17T10:30:22.694Z,20.02
2022-11-17T10:32:52.423Z,20.02
2022-11-17T10:35:19.791Z,20.03
2022-11-17T10:37:54.592Z,20.03
2022-11-17T10:40:25.424Z,20.02
2022-11-17T10:42:56.789Z,20.04
2022-11-17T10:45:22.326Z,20.00
2022-11-17T10:47:47.911Z,20.03
2022-11-17T10:50:21.893Z,20.05
2022-11-17T10:52:47.767Z,20.05
2022-11-17T10:57:53.827Z,20.03
2022-11-17T11:00:34.912Z,20.06
2022-11-17T11:03:02.369Z,20.09
2022-11-17T11:05:27.917Z,20.09
2022-11-17T11:07:54.781Z,20.09
2022-11-17T11:10:29.505Z,20.09
2022-11-17T11:12:59.308Z,20.10
2022-11-17T11:15:24.992Z,20.09
2022-11-17T11:17:50.888Z,20.10
2022-11-17T11:20:17.529Z,20.10
2022-11-17T11:22:59.146Z,19.81
2022-11-17T11:25:30.023Z,20.01
2022-11-17T11:28:00.011Z,20.07
2022-11-17T11:30:25.575Z,20.09
2022-11-17T11:32:57.805Z,20.09
2022-11-17T11:38:21.382Z,20.08
2022-11-17T11:40:54.343Z,20.08
2022-11-17T11:43:27.398Z,20.09
2022-11-17T11:45:56.611Z,20.08
2022-11-17T11:48:22.611Z,20.11
2022-11-17T11:50:52.639Z,20.11
2022-11-17T11:53:38.113Z,20.10
2022-11-17T11:56:06.549Z,20.09
2022-11-17T11:58:32.100Z,20.09
2022-11-17T12:01:00.087Z,20.11
2022-11-17T12:03:29.190Z,20.12
2022-11-17T12:05:57.991Z,20.11
2022-11-17T12:08:25.857Z,20.11
2022-11-17T12:10:53.143Z,20.02
2022-11-17T12:13:18.693Z,20.13
2022-11-17T12:15:44.255Z,20.13
2022-11-17T12:18:12.299Z,20.12
2022-11-17T12:23:32.730Z,20.14
2022-11-17T12:25:58.359Z,20.14
2022-11-17T12:28:39.544Z,20.14
2022-11-17T12:31:10.133Z,20.15
2022-11-17T12:33:54.623Z,20.16
2022-11-17T12:38:59.126Z,20.14
2022-11-17T12:41:44.565Z,20.14
2022-11-17T12:44:29.994Z,20.15
2022-11-17T12:46:55.563Z,20.17
2022-11-17T12:49:23.558Z,20.16
2022-11-17T12:51:56.834Z,20.15
2022-11-17T12:54:25.282Z,20.16
2022-11-17T12:59:45.695Z,20.16
2022-11-17T13:02:31.139Z,20.18
2022-11-17T13:04:59.998Z,20.19
2022-11-17T13:07:25.869Z,20.19
2022-11-17T13:09:56.399Z,20.18
2022-11-17T13:12:23.706Z,20.19
2022-11-17T13:14:51.286Z,20.19
2022-11-17T13:17:16.866Z,20.18
2022-11-17T13:19:42.575Z,20.20
2022-11-17T13:24:47.013Z,20.18
2022-11-17T13:27:17.102Z,20.18
2022-11-17T13:29:42.644Z,20.18
2022-11-17T13:32:16.578Z,20.19
2022-11-17T13:34:57.195Z,20.20
2022-11-17T13:37:23.833Z,20.19
2022-11-17T13:39:53.024Z,20.19
2022-11-17T13:42:19.103Z,20.20
2022-11-17T13:44:44.663Z,20.19
2022-11-17T13:47:20.738Z,20.20
2022-11-17T13:49:46.917Z,20.17
2022-11-17T13:52:13.573Z,20.16
2022-11-17T13:54:42.258Z,20.17
2022-11-17T13:57:07.862Z,20.17
2022-11-17T13:59:34.035Z,20.17
2022-11-17T14:02:19.473Z,20.17
2022-11-17T14:05:05.863Z,20.17
2022-11-17T14:07:33.522Z,20.18
2022-11-17T14:10:19.010Z,20.17
2022-11-17T14:12:44.836Z,20.17
2022-11-17T14:15:12.420Z,20.18
2022-11-17T14:17:37.994Z,20.17
2022-11-17T14:20:23.433Z,20.17
2022-11-17T14:23:07.615Z,20.17
2022-11-17T14:25:33.847Z,20.16
2022-11-17T14:27:59.409Z,20.17
2022-11-17T14:30:25.416Z,20.17
2022-11-17T14:32:50.973Z,20.17
2022-11-17T14:37:47.036Z,20.17
2022-11-17T14:40:14.389Z,20.17
2022-11-17T14:42:41.049Z,20.17
2022-11-17T14:45:07.946Z,20.17
2022-11-17T14:47:33.838Z,20.17
2022-11-17T14:49:59.377Z,20.16
2022-11-17T14:52:24.935Z,20.17
2022-11-17T14:54:50.481Z,20.16
2022-11-17T14:57:16.038Z,20.17
2022-11-17T14:59:41.596Z,20.17
2022-11-17T15:02:08.191Z,20.17
2022-11-17T15:04:50.128Z,20.17
2022-11-17T15:07:16.564Z,20.16
2022-11-17T15:09:42.142Z,20.16
2022-11-17T15:12:07.694Z,20.16
2022-11-17T15:14:33.237Z,20.17
2022-11-17T15:16:59.318Z,20.16
2022-11-17T15:19:24.861Z,20.17
2022-11-17T15:21:50.415Z,20.16
2022-11-17T15:24:16.127Z,20.16
2022-11-17T15:26:41.850Z,20.16
2022-11-17T15:29:10.309Z,20.16
2022-11-17T15:31:36.038Z,20.16
2022-11-17T15:34:01.622Z,20.17
2022-11-17T15:36:27.166Z,20.15
2022-11-17T15:38:52.730Z,20.16
2022-11-17T15:41:18.635Z,20.14
2022-11-17T15:43:44.684Z,20.14
2022-11-17T15:46:11.765Z,20.14
2022-11-17T15:48:39.323Z,20.13
2022-11-17T15:51:05.193Z,20.14
2022-11-17T15:53:31.421Z,20.13
2022-11-17T15:56:13.581Z,20.13
2022-11-17T15:58:39.494Z,20.13
2022-11-17T16:01:07.849Z,20.14
2022-11-17T16:03:33.448Z,20.13
2022-11-17T16:05:59.023Z,20.13
2022-11-17T16:08:24.564Z,20.14
2022-11-17T16:10:50.224Z,20.12
2022-11-17T16:13:15.781Z,20.13
2022-11-17T16:15:41.322Z,20.12
2022-11-17T16:18:06.873Z,20.13
2022-11-17T16:20:32.491Z,20.13
2022-11-17T16:22:58.056Z,20.14
2022-11-17T16:25:23.617Z,20.14
2022-11-17T16:27:49.167Z,20.14
2022-11-17T16:30:14.956Z,20.13
2022-11-17T16:32:40.504Z,20.14
2022-11-17T16:35:06.143Z,20.14
2022-11-17T16:37:31.699Z,20.13
2022-11-17T16:39:57.253Z,20.12
2022-11-17T16:42:22.811Z,20.12
2022-11-17T16:44:48.445Z,20.13
2022-11-17T16:47:14.185Z,20.13
2022-11-17T16:49:39.731Z,20.12
2022-11-17T16:52:05.287Z,20.13
2022-11-17T16:54:30.826Z,20.13
2022-11-17T16:56:56.422Z,20.12
2022-11-17T16:59:21.967Z,20.12
2022-11-17T17:01:47.521Z,20.12
2022-11-17T17:04:13.081Z,20.12
2022-11-17T17:06:40.503Z,20.12
2022-11-17T17:09:06.370Z,20.11
2022-11-17T17:11:32.421Z,20.11
2022-11-17T17:13:59.380Z,20.12
2022-11-17T17:16:25.291Z,20.12
2022-11-17T17:18:54.533Z,20.12
2022-11-17T17:21:20.111Z,20.12
2022-11-17T17:23:45.670Z,20.11
2022-11-17T17:26:13.367Z,20.11
2022-11-17T17:28:40.331Z,20.11
2022-11-17T17:31:06.253Z,20.11
2022-11-17T17:33:33.358Z,20.10
2022-11-17T17:36:02.638Z,20.10
2022-11-17T17:38:28.194Z,20.10
2022-11-17T17:40:53.745Z,20.10
2022-11-17T17:43:19.294Z,20.10
2022-11-17T17:45:44.835Z,20.11
2022-11-17T17:48:10.390Z,20.11
2022-11-17T17:50:35.929Z,20.10
2022-11-17T17:53:01.482Z,20.09
2022-11-17T17:55:27.023Z,20.09
2022-11-17T17:57:52.571Z,20.09
2022-11-17T18:00:18.183Z,20.10
2022-11-17T18:02:43.774Z,20.10
2022-11-17T18:05:09.339Z,20.09
2022-11-17T18:07:34.939Z,20.08
2022-11-17T18:10:00.523Z,20.09
2022-11-17T18:12:26.075Z,20.09
2022-11-17T18:14:51.620Z,20.09
2022-11-17T18:17:17.177Z,20.09
2022-11-17T18:19:42.722Z,20.08
2022-11-17T18:22:08.272Z,20.09
2022-11-17T18:24:33.907Z,20.10
2022-11-17T18:26:59.460Z,20.09
2022-11-17T18:29:25.066Z,20.09
2022-11-17T18:31:50.618Z,20.09
2022-11-17T18:34:17.993Z,20.09
2022-11-17T18:36:43.761Z,20.08
2022-11-17T18:39:09.425Z,20.08
2022-11-17T18:41:35.157Z,20.09
2022-11-17T18:44:00.713Z,20.08
2022-11-17T18:46:27.022Z,20.07
2022-11-17T18:48:52.634Z,20.09
2022-11-17T18:51:20.659Z,20.08
2022-11-17T18:53:47.235Z,20.08
2022-11-17T18:56:13.711Z,20.08
2022-11-17T18:58:39.650Z,20.08
2022-11-17T19:01:07.250Z,20.08
2022-11-17T19:03:34.065Z,20.09
2022-11-17T19:05:59.611Z,20.08
2022-11-17T19:08:27.218Z,20.08
2022-11-17T19:10:53.036Z,20.07
2022-11-17T19:13:18.802Z,20.07
2022-11-17T19:15:44.342Z,20.07
2022-11-17T19:18:09.926Z,20.07
2022-11-17T19:20:35.471Z,20.06
2022-11-17T19:23:01.020Z,20.06
2022-11-17T19:25:26.561Z,20.07
2022-11-17T19:27:52.114Z,20.08
2022-11-17T19:30:18.322Z,20.07
2022-11-17T19:32:43.877Z,20.06
2022-11-17T19:35:14.784Z,20.07
2022-11-17T19:37:43.953Z,20.07
2022-11-17T19:40:09.577Z,20.05
2022-11-17T19:42:35.209Z,20.05
2022-11-17T19:45:00.750Z,20.07
2022-11-17T19:47:26.523Z,20.06
2022-11-17T19:49:52.067Z,20.05
2022-11-17T19:52:17.842Z,20.07
2022-11-17T19:54:43.397Z,20.05
2022-11-17T19:57:08.945Z,20.05
2022-11-17T19:59:34.495Z,20.05
2022-11-17T20:02:00.069Z,20.05
2022-11-17T20:04:25.625Z,20.05
2022-11-17T20:06:51.347Z,20.05
2022-11-17T20:09:17.204Z,20.04
2022-11-17T20:11:42.946Z,20.05
2022-11-17T20:14:08.508Z,20.04
2022-11-17T20:16:35.879Z,20.05
2022-11-17T20:19:01.641Z,20.05
2022-11-17T20:21:28.057Z,20.04
2022-11-17T20:23:53.906Z,20.05
2022-11-17T20:26:20.672Z,20.04
2022-11-17T20:28:46.990Z,20.04
2022-11-17T20:31:13.413Z,20.03
2022-11-17T20:33:39.412Z,20.04
2022-11-17T20:36:05.426Z,20.04
2022-11-17T20:38:31.082Z,20.04
2022-11-17T20:40:57.400Z,20.03
2022-11-17T20:43:23.162Z,20.03
2022-11-17T20:45:50.322Z,20.03
2022-11-17T20:48:15.871Z,20.03
2022-11-17T20:50:41.422Z,20.04
2022-11-17T20:53:06.986Z,20.03
2022-11-17T20:55:32.522Z,20.03
2022-11-17T20:57:58.078Z,20.02
2022-11-17T21:00:23.630Z,20.02
2022-11-17T21:02:49.212Z,20.02
2022-11-17T21:05:14.759Z,20.02
2022-11-17T21:07:40.370Z,20.02
2022-11-17T21:10:06.019Z,20.02
2022-11-17T21:12:32.098Z,20.02
2022-11-17T21:14:57.645Z,20.02
2022-11-17T21:17:43.158Z,20.02
2022-11-17T21:20:09.132Z,20.01
2022-11-17T21:22:34.693Z,20.02
2022-11-17T21:25:00.238Z,20.01
2022-11-17T21:27:25.803Z,20.02
2022-11-17T21:29:51.403Z,20.02
2022-11-17T21:32:16.951Z,20.01
2022-11-17T21:34:47.020Z,20.02
2022-11-17T21:37:15.130Z,20.01
2022-11-17T21:39:40.670Z,20.01
2022-11-17T21:42:06.222Z,20.02
2022-11-17T21:44:31.770Z,20.01
2022-11-17T21:46:57.310Z,20.01
2022-11-17T21:49:22.863Z,20.01
2022-11-17T21:51:48.402Z,20.01
2022-11-17T21:54:13.954Z,20.01
2022-11-17T21:56:39.914Z,20.01
2022-11-17T21:59:06.153Z,20.02
2022-11-17T22:01:32.080Z,20.00
2022-11-17T22:03:57.775Z,20.00
2022-11-17T22:06:23.529Z,20.00
2022-11-17T22:08:49.553Z,20.00
2022-11-17T22:11:16.166Z,20.00
2022-11-17T22:13:41.793Z,20.00
2022-11-17T22:16:09.073Z,20.01
2022-11-17T22:18:34.622Z,20.00
2022-11-17T22:21:00.177Z,20.00
2022-11-17T22:23:26.333Z,20.00
2022-11-17T22:25:52.952Z,20.01
2022-11-17T22:28:18.491Z,20.00
2022-11-17T22:30:44.043Z,20.01
2022-11-17T22:33:09.650Z,19.99
2022-11-17T22:35:35.202Z,20.00
2022-11-17T22:38:00.740Z,19.99
2022-11-17T22:40:26.286Z,19.99
2022-11-17T22:42:51.847Z,20.00
2022-11-17T22:45:17.398Z,19.98
2022-11-17T22:47:43.386Z,20.00
2022-11-17T22:50:08.974Z,19.99
2022-11-17T22:52:34.514Z,19.99
2022-11-17T22:55:00.061Z,19.99
2022-11-17T22:57:25.606Z,19.99
2022-11-17T22:59:51.155Z,19.99
2022-11-17T23:02:16.701Z,19.99
2022-11-17T23:04:42.247Z,19.99
2022-11-17T23:07:07.875Z,19.99
2022-11-17T23:09:33.479Z,19.99
2022-11-17T23:11:59.026Z,19.99
2022-11-17T23:14:24.574Z,19.98
2022-11-17T23:16:50.118Z,19.98
2022-11-17T23:19:16.241Z,19.99
2022-11-17T23:21:41.991Z,19.99
2022-11-17T23:24:09.606Z,19.98
2022-11-17T23:26:35.518Z,19.99
2022-11-17T23:29:01.060Z,20.00
2022-11-17T23:31:27.629Z,19.99
2022-11-17T23:33:53.322Z,19.99
2022-11-17T23:36:19.491Z,19.98
2022-11-17T23:38:45.190Z,19.97
2022-11-17T23:41:11.633Z,19.99
2022-11-17T23:43:37.174Z,19.99
2022-11-17T23:46:04.009Z,19.97
2022-11-17T23:48:29.549Z,19.97
2022-11-17T23:50:55.114Z,19.98
2022-11-17T23:53:20.650Z,19.98
2022-11-17T23:55:53.628Z,19.97
2022-11-17T23:58:19.172Z,19.97
